Time;durP1;ratioP1;P1;durP2;ratioP2;P2;SDS_P1;SDS_P2;PMS_P1;PMS_P2;Temp;Humidity;BMP_temperature;BMP_pressure;BME280_temperature;BME280_humidity;BME280_pressure;Samples;Min_cycle;Max_cycle;Signal;HPM_P1;HPM_P2
2023/01/22 00:00:26;;;;;;;;;;;;;;;;;;1040516;28;2470;-53
2023/01/22 00:01:24;;;;;;;;;;;;;;;;;;1037803;28;4075;-51
2023/01/22 00:01:54;;;;;;;;;;;;;;;;;;1035581;28;3938;-52
2023/01/22 00:02:24;;;;;;;;;;;;;;;;;;1037244;28;1628;-48
2023/01/22 00:02:54;;;;;;;;;;;;;;;;;;1036779;28;3923;-54
2023/01/22 00:03:25;;;;;;;;;;;;;;;;;;1038920;28;2011;-50
2023/01/22 00:03:55;;;;;;;;;;;;;;;;;;1039510;28;4013;-50
2023/01/22 00:04:25;;;;;;;;;;;;;;;;;;1039222;28;2484;-50
2023/01/22 00:04:55;;;;;;;;;;;;;;;;;;1038254;28;3891;-55
2023/01/22 00:05:26;;;;;;;;;;;;;;;;;;1039390;28;2631;-48
2023/01/22 00:05:56;;;;;;;;;;;;;;;;;;1041231;28;3835;-52
2023/01/22 00:06:26;;;;;;;;;;;;;;;;;;1040473;28;2252;-51
2023/01/22 00:06:57;;;;;;;;;;;;;;;;;;1039774;28;3783;-52
2023/01/22 00:07:27;;;;;;;;;;;;;;;;;;1039953;28;1861;-51
2023/01/22 00:07:57;;;;;;;;;;;;;;;;;;1039942;28;3906;-49
2023/01/22 00:08:27;;;;;;;;;;;;;;;;;;1039640;28;1633;-51
2023/01/22 00:09:02;;;;;;;;;;;;;;;;;;1040019;28;3793;-52
2023/01/22 00:09:32;;;;;;;;;;;;;;;;;;1038974;28;4377;-52
2023/01/22 00:10:03;;;;;;;;;;;;;;;;;;1040070;28;2383;-50
2023/01/22 00:10:33;;;;;;;;;;;;;;;;;;1040007;28;4052;-51
2023/01/22 00:11:03;;;;;;;;;;;;;;;;;;1041312;28;2232;-53
2023/01/22 00:11:34;;;;;;;;;;;;;;;;;;1038894;28;3831;-50
2023/01/22 00:12:04;;;;;;;;;;;;;;;;;;1039673;28;2109;-49
2023/01/22 00:12:34;;;;;;;;;;;;;;;;;;1038336;28;3808;-52
2023/01/22 00:13:05;;;;;;;;;;;;;;;;;;1034308;28;2755;-49
2023/01/22 00:13:35;;;;;;;;;;;;;;;;;;1035581;28;4020;-50
2023/01/22 00:14:05;;;;;;;;;;;;;;;;;;1035349;28;1860;-48
2023/01/22 00:14:36;;;;;;;;;;;;;;;;;;1034949;28;4056;-52
2023/01/22 00:15:06;;;;;;;;;;;;;;;;;;1040393;28;2487;-49
2023/01/22 00:15:37;;;;;;;;;;;;;;;;;;1038224;28;4001;-55
2023/01/22 00:16:08;;;;;;;;;;;;;;;;;;1039944;28;2973;-52
2023/01/22 00:16:40;;;;;;;;;;;;;;;;;;1039120;28;4014;-53
2023/01/22 00:17:10;;;;;;;;;;;;;;;;;;1039283;28;2497;-51
2023/01/22 00:17:47;;;;;;;;;;;;;;;;;;1038271;28;3843;-52
2023/01/22 00:18:24;;;;;;;;;;;;;;;;;;1041549;28;2992;-51
2023/01/22 00:18:54;;;;;;;;;;;;;;;;;;1040596;28;3932;-48
2023/01/22 00:19:25;;;;;;;;;;;;;;;;;;1039134;28;3039;-51
2023/01/22 00:19:55;;;;;;;;;;;;;;;;;;1040889;28;5389;-56
2023/01/22 00:20:25;;;;;;;;;;;;;;;;;;1035757;28;2739;-52
2023/01/22 00:20:56;;;;;;;;;;;;;;;;;;1036731;28;3941;-52
2023/01/22 00:21:26;;;;;;;;;;;;;;;;;;1036806;28;2659;-52
2023/01/22 00:21:56;;;;;;;;;;;;;;;;;;1036875;28;4363;-51
2023/01/22 00:22:27;;;;;;;;;;;;;;;;;;1039090;28;2432;-53
2023/01/22 00:22:57;;;;;;;;;;;;;;;;;;1038915;28;3880;-49
2023/01/22 00:23:27;;;;;;;;;;;;;;;;;;1040420;28;2359;-52
2023/01/22 00:23:57;;;;;;;;;;;;;;;;;;1040108;28;3700;-53
2023/01/22 00:24:28;;;;;;;;;;;;;;;;;;1039390;28;2966;-51
2023/01/22 00:24:58;;;;;;;;;;;;;;;;;;1039404;28;3760;-50
2023/01/22 00:25:28;;;;;;;;;;;;;;;;;;1042228;28;2017;-54
2023/01/22 00:25:59;;;;;;;;;;;;;;;;;;1039163;28;3970;-52
2023/01/22 00:26:30;;;;;;;;;;;;;;;;;;1040099;28;2909;-51
2023/01/22 00:27:00;;;;;;;;;;;;;;;;;;1039562;28;3911;-53
2023/01/22 00:27:30;;;;;;;;;;;;;;;;;;1040391;28;2345;-51
2023/01/22 00:28:01;;;;;;;;;;;;;;;;;;1038054;28;3957;-52
2023/01/22 00:28:31;;;;;;;;;;;;;;;;;;1040859;28;2162;-52
2023/01/22 00:29:02;;;;;;;;;;;;;;;;;;1039887;28;3985;-49
2023/01/22 00:29:32;;;;;;;;;;;;;;;;;;1038171;28;4278;-51
2023/01/22 00:30:03;;;;;;;;;;;;;;;;;;1040384;28;2354;-55
2023/01/22 00:30:33;;;;;;;;;;;;;;;;;;1039377;28;4259;-52
2023/01/22 00:31:04;;;;;;;;;;;;;;;;;;1039380;28;2762;-48
2023/01/22 00:31:36;;;;;;;;;;;;;;;;;;1040342;28;4046;-50
2023/01/22 00:32:06;;;;;;;;;;;;;;;;;;1041257;28;2411;-51
2023/01/22 00:32:36;;;;;;;;;;;;;;;;;;1038434;28;4136;-52
2023/01/22 00:33:07;;;;;;;;;;;;;;;;;;1040254;28;1686;-49
2023/01/22 00:33:37;;;;;;;;;;;;;;;;;;1034495;28;4222;-53
2023/01/22 00:34:08;;;;;;;;;;;;;;;;;;1035541;28;2854;-50
2023/01/22 00:34:38;;;;;;;;;;;;;;;;;;1034195;28;4411;-48
2023/01/22 00:35:08;;;;;;;;;;;;;;;;;;1034212;28;2778;-50
2023/01/22 00:35:38;;;;;;;;;;;;;;;;;;1039827;28;3949;-50
2023/01/22 00:36:11;;;;;;;;;;;;;;;;;;1034603;28;1851;-48
2023/01/22 00:36:41;;;;;;;;;;;;;;;;;;1035469;28;4026;-49
2023/01/22 00:37:11;;;;;;;;;;;;;;;;;;1034641;28;2007;-49
2023/01/22 00:37:42;;;;;;;;;;;;;;;;;;1034091;28;4114;-50
2023/01/22 00:38:12;;;;;;;;;;;;;;;;;;1042796;28;2174;-53
2023/01/22 00:38:42;;;;;;;;;;;;;;;;;;1041243;28;3793;-51
2023/01/22 00:39:13;;;;;;;;;;;;;;;;;;1040869;28;2205;-51
2023/01/22 00:39:43;;;;;;;;;;;;;;;;;;1038961;28;3800;-52
2023/01/22 00:40:14;;;;;;;;;;;;;;;;;;1038921;28;1796;-49
2023/01/22 00:40:44;;;;;;;;;;;;;;;;;;1038272;28;3866;-49
2023/01/22 00:41:15;;;;;;;;;;;;;;;;;;1039137;28;1394;-49
2023/01/22 00:41:45;;;;;;;;;;;;;;;;;;1042328;28;4215;-52
2023/01/22 00:42:15;;;;;;;;;;;;;;;;;;1041924;28;1991;-52
2023/01/22 00:42:45;;;;;;;;;;;;;;;;;;1040707;28;3908;-48
2023/01/22 00:43:16;;;;;;;;;;;;;;;;;;1039286;28;2825;-52
2023/01/22 00:43:46;;;;;;;;;;;;;;;;;;1039143;28;4256;-51
2023/01/22 00:44:17;;;;;;;;;;;;;;;;;;1040087;28;1852;-51
2023/01/22 00:44:47;;;;;;;;;;;;;;;;;;1040443;28;3798;-51
2023/01/22 00:45:17;;;;;;;;;;;;;;;;;;1040388;28;2860;-50
2023/01/22 00:45:47;;;;;;;;;;;;;;;;;;1040161;28;3804;-49
2023/01/22 00:46:20;;;;;;;;;;;;;;;;;;1039433;28;1961;-53
2023/01/22 00:46:51;;;;;;;;;;;;;;;;;;1035457;28;3974;-49
2023/01/22 00:47:21;;;;;;;;;;;;;;;;;;1037183;28;2679;-48
2023/01/22 00:47:52;;;;;;;;;;;;;;;;;;1035078;28;3949;-52
2023/01/22 00:48:22;;;;;;;;;;;;;;;;;;1036025;28;2732;-53
2023/01/22 00:48:52;;;;;;;;;;;;;;;;;;1039157;28;3843;-50
2023/01/22 00:49:23;;;;;;;;;;;;;;;;;;1039478;28;2058;-55
2023/01/22 00:49:53;;;;;;;;;;;;;;;;;;1038895;28;3801;-53
2023/01/22 00:50:23;;;;;;;;;;;;;;;;;;1041661;28;2704;-53
2023/01/22 00:50:53;;;;;;;;;;;;;;;;;;1039597;28;3868;-52
2023/01/22 00:51:24;;;;;;;;;;;;;;;;;;1040238;28;3173;-53
2023/01/22 00:51:54;;;;;;;;;;;;;;;;;;1041198;28;3942;-50
2023/01/22 00:52:24;;;;;;;;;;;;;;;;;;1039539;28;2127;-48
2023/01/22 00:52:54;;;;;;;;;;;;;;;;;;1041756;28;4046;-52
2023/01/22 00:53:25;;;;;;;;;;;;;;;;;;1040308;28;2688;-50
2023/01/22 00:53:55;;;;;;;;;;;;;;;;;;1042725;28;3917;-50
2023/01/22 00:54:25;;;;;;;;;;;;;;;;;;1040155;28;2699;-48
2023/01/22 00:54:56;;;;;;;;;;;;;;;;;;1035062;28;4029;-53
2023/01/22 00:55:26;;;;;;;;;;;;;;;;;;1036943;28;2871;-51
2023/01/22 00:55:57;;;;;;;;;;;;;;;;;;1034928;28;4417;-50
2023/01/22 00:56:28;;;;;;;;;;;;;;;;;;1035906;28;2775;-51
2023/01/22 00:56:58;;;;;;;;;;;;;;;;;;1039761;28;3728;-49
2023/01/22 00:57:28;;;;;;;;;;;;;;;;;;1042550;28;1764;-54
2023/01/22 00:57:58;;;;;;;;;;;;;;;;;;1034259;28;3805;-53
2023/01/22 00:58:29;;;;;;;;;;;;;;;;;;1037944;28;2505;-52
2023/01/22 00:58:59;;;;;;;;;;;;;;;;;;1037591;28;4000;-52
2023/01/22 00:59:29;;;;;;;;;;;;;;;;;;1036698;28;3026;-48
2023/01/22 01:00:00;;;;;;;;;;;;;;;;;;1041676;28;3835;-50
2023/01/22 01:00:30;;;;;;;;;;;;;;;;;;1040129;28;2371;-49
2023/01/22 01:01:07;;;;;;;;;;;;;;;;;;1039214;28;3833;-49
2023/01/22 01:01:38;;;;;;;;;;;;;;;;;;1040476;28;4049;-51
2023/01/22 01:02:08;;;;;;;;;;;;;;;;;;1040287;28;2408;-51
2023/01/22 01:03:25;;;;;;;;;;;;;;;;;;1040803;28;3937;-50
2023/01/22 01:03:30;;;;;;;;;;;;;;;;;;1039906;28;3014;-50
2023/01/22 01:04:00;;;;;;;;;;;;;;;;;;1038042;28;4475;-48
2023/01/22 01:04:31;;;;;;;;;;;;;;;;;;1038806;28;1795;-51
2023/01/22 01:05:01;;;;;;;;;;;;;;;;;;1036705;28;4295;-49
2023/01/22 01:05:32;;;;;;;;;;;;;;;;;;1035876;28;2845;-48
2023/01/22 01:06:04;;;;;;;;;;;;;;;;;;1040053;28;3707;-53
2023/01/22 01:06:34;;;;;;;;;;;;;;;;;;1040243;28;4051;-52
2023/01/22 01:07:04;;;;;;;;;;;;;;;;;;1039531;28;2817;-55
2023/01/22 01:07:35;;;;;;;;;;;;;;;;;;1040837;28;3977;-48
2023/01/22 01:08:05;;;;;;;;;;;;;;;;;;1041298;28;3101;-50
2023/01/22 01:08:37;;;;;;;;;;;;;;;;;;1040207;28;3894;-47
2023/01/22 01:09:07;;;;;;;;;;;;;;;;;;1040557;28;2560;-55
2023/01/22 01:09:37;;;;;;;;;;;;;;;;;;1039532;28;4621;-50
2023/01/22 01:10:08;;;;;;;;;;;;;;;;;;1040550;28;1790;-49
2023/01/22 01:10:38;;;;;;;;;;;;;;;;;;1041600;28;3954;-55
2023/01/22 01:11:16;;;;;;;;;;;;;;;;;;1042718;28;2291;-50
2023/01/22 01:11:46;;;;;;;;;;;;;;;;;;1040505;28;4070;-52
2023/01/22 01:12:16;;;;;;;;;;;;;;;;;;1042871;28;1810;-53
2023/01/22 01:12:47;;;;;;;;;;;;;;;;;;1040388;28;4029;-51
2023/01/22 01:13:17;;;;;;;;;;;;;;;;;;1039929;28;2422;-51
2023/01/22 01:13:48;;;;;;;;;;;;;;;;;;1035199;28;4020;-52
2023/01/22 01:14:18;;;;;;;;;;;;;;;;;;1034274;28;2797;-52
2023/01/22 01:14:49;;;;;;;;;;;;;;;;;;1031346;28;3947;-52
2023/01/22 01:15:19;;;;;;;;;;;;;;;;;;1033190;28;2579;-48
2023/01/22 01:15:57;;;;;;;;;;;;;;;;;;1035490;28;3841;-49
2023/01/22 01:16:28;;;;;;;;;;;;;;;;;;1040352;28;2840;-50
2023/01/22 01:16:58;;;;;;;;;;;;;;;;;;1039714;28;4088;-53
2023/01/22 01:17:29;;;;;;;;;;;;;;;;;;1038515;28;1814;-50
2023/01/22 01:18:05;;;;;;;;;;;;;;;;;;1035939;28;3974;-51
2023/01/22 01:18:42;;;;;;;;;;;;;;;;;;1031010;28;4032;-51
2023/01/22 01:19:12;;;;;;;;;;;;;;;;;;1035108;28;2665;-51
2023/01/22 01:19:43;;;;;;;;;;;;;;;;;;1032763;28;3859;-51
2023/01/22 01:20:13;;;;;;;;;;;;;;;;;;1035035;28;2859;-52
2023/01/22 01:20:43;;;;;;;;;;;;;;;;;;1035182;28;4102;-50
2023/01/22 01:21:14;;;;;;;;;;;;;;;;;;1036144;28;2813;-53
2023/01/22 01:21:44;;;;;;;;;;;;;;;;;;1035708;28;4333;-51
2023/01/22 01:22:15;;;;;;;;;;;;;;;;;;1038460;28;2383;-50
2023/01/22 01:22:45;;;;;;;;;;;;;;;;;;1036441;28;3983;-50
2023/01/22 01:23:15;;;;;;;;;;;;;;;;;;1036499;28;2966;-48
2023/01/22 01:23:45;;;;;;;;;;;;;;;;;;1036772;28;3995;-49
2023/01/22 01:24:16;;;;;;;;;;;;;;;;;;1038602;28;1639;-52
2023/01/22 01:24:46;;;;;;;;;;;;;;;;;;1035203;28;3962;-51
2023/01/22 01:25:16;;;;;;;;;;;;;;;;;;1037157;28;2391;-47
2023/01/22 01:25:46;;;;;;;;;;;;;;;;;;1035982;28;4420;-47
2023/01/22 01:26:17;;;;;;;;;;;;;;;;;;1036513;28;1919;-51
2023/01/22 01:26:47;;;;;;;;;;;;;;;;;;1034643;28;3845;-50
2023/01/22 01:27:17;;;;;;;;;;;;;;;;;;1036426;28;2998;-51
2023/01/22 01:27:48;;;;;;;;;;;;;;;;;;1038669;28;3919;-54
2023/01/22 01:28:18;;;;;;;;;;;;;;;;;;1036431;28;2055;-51
2023/01/22 01:28:51;;;;;;;;;;;;;;;;;;1036566;28;3953;-47
2023/01/22 01:29:21;;;;;;;;;;;;;;;;;;1036821;28;2907;-49
2023/01/22 01:29:51;;;;;;;;;;;;;;;;;;1035014;28;4024;-53
2023/01/22 01:30:22;;;;;;;;;;;;;;;;;;1036302;28;3564;-51
2023/01/22 01:30:52;;;;;;;;;;;;;;;;;;1036760;28;4107;-50
2023/01/22 01:31:24;;;;;;;;;;;;;;;;;;1035216;28;2975;-51
2023/01/22 01:31:56;;;;;;;;;;;;;;;;;;1036916;28;3915;-51
2023/01/22 01:32:26;;;;;;;;;;;;;;;;;;1036597;28;2636;-49
2023/01/22 01:32:57;;;;;;;;;;;;;;;;;;1036214;28;3885;-50
2023/01/22 01:33:27;;;;;;;;;;;;;;;;;;1036605;28;2678;-51
2023/01/22 01:33:57;;;;;;;;;;;;;;;;;;1035639;28;4013;-52
2023/01/22 01:34:27;;;;;;;;;;;;;;;;;;1034682;28;2791;-52
2023/01/22 01:34:58;;;;;;;;;;;;;;;;;;1037292;28;4059;-51
2023/01/22 01:35:28;;;;;;;;;;;;;;;;;;1035049;28;1583;-51
2023/01/22 01:36:03;;;;;;;;;;;;;;;;;;1035132;28;3886;-49
2023/01/22 01:36:33;;;;;;;;;;;;;;;;;;1034836;28;4072;-50
2023/01/22 01:37:03;;;;;;;;;;;;;;;;;;1035949;28;2808;-52
2023/01/22 01:37:34;;;;;;;;;;;;;;;;;;1034914;28;3811;-56
2023/01/22 01:38:04;;;;;;;;;;;;;;;;;;1037391;28;1685;-47
2023/01/22 01:38:34;;;;;;;;;;;;;;;;;;1037213;28;4425;-54
2023/01/22 01:39:05;;;;;;;;;;;;;;;;;;1039640;28;1668;-50
2023/01/22 01:39:35;;;;;;;;;;;;;;;;;;1035736;28;4234;-52
2023/01/22 01:40:06;;;;;;;;;;;;;;;;;;1037806;28;1841;-48
2023/01/22 01:40:40;;;;;;;;;;;;;;;;;;1035160;28;4440;-49
2023/01/22 01:41:12;;;;;;;;;;;;;;;;;;1039341;28;1955;-50
2023/01/22 01:41:42;;;;;;;;;;;;;;;;;;1037636;28;4043;-49
2023/01/22 01:42:12;;;;;;;;;;;;;;;;;;1036451;28;1986;-51
2023/01/22 01:42:44;;;;;;;;;;;;;;;;;;1036257;28;3925;-51
2023/01/22 01:43:15;;;;;;;;;;;;;;;;;;1035762;28;1696;-51
2023/01/22 01:43:46;;;;;;;;;;;;;;;;;;1034862;28;3776;-52
2023/01/22 01:44:17;;;;;;;;;;;;;;;;;;1035300;28;1814;-49
2023/01/22 01:45:08;;;;;;;;;;;;;;;;;;1037491;28;4210;-50
2023/01/22 01:45:38;;;;;;;;;;;;;;;;;;1038060;28;3997;-53
2023/01/22 01:46:17;;;;;;;;;;;;;;;;;;1035808;28;2422;-51
2023/01/22 01:46:50;;;;;;;;;;;;;;;;;;1034922;28;4209;-51
2023/01/22 01:47:33;;;;;;;;;;;;;;;;;;1035355;28;2051;-49
2023/01/22 01:48:22;;;;;;;;;;;;;;;;;;1035116;28;3874;-46
2023/01/22 01:48:54;;;;;;;;;;;;;;;;;;1035311;28;4575;-54
2023/01/22 01:49:24;;;;;;;;;;;;;;;;;;1037832;28;2942;-51
2023/01/22 01:49:54;;;;;;;;;;;;;;;;;;1036463;28;3897;-53
2023/01/22 01:50:25;;;;;;;;;;;;;;;;;;1036619;28;1821;-51
2023/01/22 01:51:03;;;;;;;;;;;;;;;;;;1035690;28;4371;-50
2023/01/22 01:51:34;;;;;;;;;;;;;;;;;;1035414;28;4401;-49
2023/01/22 01:52:06;;;;;;;;;;;;;;;;;;1037269;28;2727;-53
2023/01/22 01:52:37;;;;;;;;;;;;;;;;;;1036577;28;4503;-53
2023/01/22 01:53:07;;;;;;;;;;;;;;;;;;1034826;28;1739;-52
2023/01/22 01:53:39;;;;;;;;;;;;;;;;;;1035757;28;3997;-54
2023/01/22 01:54:10;;;;;;;;;;;;;;;;;;1035877;28;2784;-51
2023/01/22 01:54:41;;;;;;;;;;;;;;;;;;1037245;28;4021;-51
2023/01/22 01:55:13;;;;;;;;;;;;;;;;;;1035503;28;2064;-50
2023/01/22 01:55:43;;;;;;;;;;;;;;;;;;1035378;28;4433;-52
2023/01/22 01:56:16;;;;;;;;;;;;;;;;;;1035972;28;2579;-50
2023/01/22 01:56:55;;;;;;;;;;;;;;;;;;1034720;28;4382;-50
2023/01/22 01:57:27;;;;;;;;;;;;;;;;;;1037969;28;1866;-50
2023/01/22 01:58:09;;;;;;;;;;;;;;;;;;1038316;28;3708;-55
2023/01/22 01:58:41;;;;;;;;;;;;;;;;;;1037260;28;3873;-49
2023/01/22 01:59:12;;;;;;;;;;;;;;;;;;1036688;28;1938;-51
2023/01/22 01:59:44;;;;;;;;;;;;;;;;;;1036306;28;3966;-54
2023/01/22 02:00:16;;;;;;;;;;;;;;;;;;1035444;28;1623;-50
2023/01/22 02:00:50;;;;;;;;;;;;;;;;;;1036941;28;4044;-50
2023/01/22 02:01:20;;;;;;;;;;;;;;;;;;1035785;28;2774;-50
2023/01/22 02:01:52;;;;;;;;;;;;;;;;;;1037946;28;4074;-50
2023/01/22 02:02:23;;;;;;;;;;;;;;;;;;1038856;28;1992;-50
2023/01/22 02:02:54;;;;;;;;;;;;;;;;;;1038748;28;4042;-52
2023/01/22 02:03:24;;;;;;;;;;;;;;;;;;1039450;28;1627;-48
2023/01/22 02:03:54;;;;;;;;;;;;;;;;;;1035961;28;3798;-53
2023/01/22 02:04:25;;;;;;;;;;;;;;;;;;1036349;28;2769;-53
2023/01/22 02:04:56;;;;;;;;;;;;;;;;;;1035314;28;4016;-52
2023/01/22 02:05:28;;;;;;;;;;;;;;;;;;1041906;28;2195;-48
2023/01/22 02:05:59;;;;;;;;;;;;;;;;;;1036422;28;4013;-50
2023/01/22 02:06:29;;;;;;;;;;;;;;;;;;1035861;28;2318;-53
2023/01/22 02:07:00;;;;;;;;;;;;;;;;;;1038217;28;4087;-49
2023/01/22 02:07:30;;;;;;;;;;;;;;;;;;1037734;28;2799;-48
2023/01/22 02:08:01;;;;;;;;;;;;;;;;;;1035950;28;3734;-50
2023/01/22 02:08:31;;;;;;;;;;;;;;;;;;1037066;28;2291;-50
2023/01/22 02:09:02;;;;;;;;;;;;;;;;;;1034391;28;3881;-49
2023/01/22 02:09:33;;;;;;;;;;;;;;;;;;1034373;28;3899;-53
2023/01/22 02:10:05;;;;;;;;;;;;;;;;;;1037615;28;2814;-49
2023/01/22 02:10:36;;;;;;;;;;;;;;;;;;1036815;28;3943;-49
2023/01/22 02:11:06;;;;;;;;;;;;;;;;;;1035673;28;2775;-52
2023/01/22 02:11:38;;;;;;;;;;;;;;;;;;1035851;28;3896;-50
2023/01/22 02:12:08;;;;;;;;;;;;;;;;;;1036239;28;2297;-52
2023/01/22 02:12:38;;;;;;;;;;;;;;;;;;1036008;28;3983;-51
2023/01/22 02:13:11;;;;;;;;;;;;;;;;;;1038749;28;2418;-48
2023/01/22 02:13:44;;;;;;;;;;;;;;;;;;1036441;28;4051;-47
2023/01/22 02:14:16;;;;;;;;;;;;;;;;;;1036690;28;2487;-49
2023/01/22 02:14:47;;;;;;;;;;;;;;;;;;1036785;28;3933;-49
2023/01/22 02:15:17;;;;;;;;;;;;;;;;;;1038516;28;2118;-48
2023/01/22 02:15:48;;;;;;;;;;;;;;;;;;1037487;28;4395;-51
2023/01/22 02:16:18;;;;;;;;;;;;;;;;;;1035629;28;2692;-53
2023/01/22 02:16:58;;;;;;;;;;;;;;;;;;1036572;28;3954;-52
2023/01/22 02:17:28;;;;;;;;;;;;;;;;;;1035900;28;1892;-48
2023/01/22 02:18:05;;;;;;;;;;;;;;;;;;1038195;28;3775;-52
2023/01/22 02:18:42;;;;;;;;;;;;;;;;;;1039763;28;3970;-54
2023/01/22 02:19:19;;;;;;;;;;;;;;;;;;1039649;28;1692;-48
2023/01/22 02:19:49;;;;;;;;;;;;;;;;;;1040277;28;3780;-49
2023/01/22 02:20:20;;;;;;;;;;;;;;;;;;1040754;28;3762;-51
2023/01/22 02:20:51;;;;;;;;;;;;;;;;;;1040149;28;4099;-51
2023/01/22 02:21:32;;;;;;;;;;;;;;;;;;1040533;28;2869;-48
2023/01/22 02:22:10;;;;;;;;;;;;;;;;;;1037890;28;3723;-54
2023/01/22 02:22:40;;;;;;;;;;;;;;;;;;1036286;28;4276;-54
2023/01/22 02:23:10;;;;;;;;;;;;;;;;;;1035537;28;2547;-50
2023/01/22 02:23:40;;;;;;;;;;;;;;;;;;1032694;28;4099;-49
2023/01/22 02:24:12;;;;;;;;;;;;;;;;;;1032929;28;2383;-51
2023/01/22 02:24:42;;;;;;;;;;;;;;;;;;1036697;28;4015;-52
2023/01/22 02:25:12;;;;;;;;;;;;;;;;;;1037427;28;2447;-54
2023/01/22 02:25:43;;;;;;;;;;;;;;;;;;1040581;28;4193;-55
2023/01/22 02:26:13;;;;;;;;;;;;;;;;;;1041481;28;2593;-49
2023/01/22 02:26:44;;;;;;;;;;;;;;;;;;1040097;28;3836;-51
2023/01/22 02:27:14;;;;;;;;;;;;;;;;;;1040703;28;2897;-52
2023/01/22 02:27:45;;;;;;;;;;;;;;;;;;1041107;28;3867;-53
2023/01/22 02:28:15;;;;;;;;;;;;;;;;;;1039613;28;2015;-50
2023/01/22 02:28:45;;;;;;;;;;;;;;;;;;1039355;28;4209;-53
2023/01/22 02:29:16;;;;;;;;;;;;;;;;;;1041446;28;2788;-53
2023/01/22 02:29:46;;;;;;;;;;;;;;;;;;1039047;28;4163;-51
2023/01/22 02:30:16;;;;;;;;;;;;;;;;;;1041102;28;3008;-48
2023/01/22 02:30:46;;;;;;;;;;;;;;;;;;1034687;28;3970;-51
2023/01/22 02:31:17;;;;;;;;;;;;;;;;;;1036429;28;2417;-48
2023/01/22 02:31:47;;;;;;;;;;;;;;;;;;1034628;28;4433;-50
2023/01/22 02:32:18;;;;;;;;;;;;;;;;;;1036647;28;2600;-52
2023/01/22 02:32:48;;;;;;;;;;;;;;;;;;1035664;28;4101;-51
2023/01/22 02:33:18;;;;;;;;;;;;;;;;;;1035520;28;2887;-51
2023/01/22 02:33:49;;;;;;;;;;;;;;;;;;1041440;28;4032;-50
2023/01/22 02:34:23;;;;;;;;;;;;;;;;;;1041035;28;2400;-53
2023/01/22 02:34:54;;;;;;;;;;;;;;;;;;1039347;28;4449;-51
2023/01/22 02:35:24;;;;;;;;;;;;;;;;;;1039591;28;2257;-52
2023/01/22 02:35:54;;;;;;;;;;;;;;;;;;1042822;28;3770;-52
2023/01/22 02:36:24;;;;;;;;;;;;;;;;;;1040271;28;2769;-49
2023/01/22 02:36:55;;;;;;;;;;;;;;;;;;1039706;28;4360;-53
2023/01/22 02:37:25;;;;;;;;;;;;;;;;;;1040471;28;1905;-51
2023/01/22 02:37:55;;;;;;;;;;;;;;;;;;1039850;28;3796;-51
2023/01/22 02:38:25;;;;;;;;;;;;;;;;;;1039722;28;2786;-54
2023/01/22 02:38:56;;;;;;;;;;;;;;;;;;1039618;28;3925;-53
2023/01/22 02:39:26;;;;;;;;;;;;;;;;;;1040448;28;2817;-48
2023/01/22 02:39:56;;;;;;;;;;;;;;;;;;1039633;28;3791;-49
2023/01/22 02:40:28;;;;;;;;;;;;;;;;;;1041143;28;1670;-49
2023/01/22 02:40:59;;;;;;;;;;;;;;;;;;1039283;28;4404;-51
2023/01/22 02:41:29;;;;;;;;;;;;;;;;;;1038820;28;1883;-50
2023/01/22 02:42:00;;;;;;;;;;;;;;;;;;1041702;28;3966;-52
2023/01/22 02:42:30;;;;;;;;;;;;;;;;;;1043128;28;1772;-51
2023/01/22 02:43:00;;;;;;;;;;;;;;;;;;1038243;28;3998;-53
2023/01/22 02:43:30;;;;;;;;;;;;;;;;;;1040291;28;2953;-53
2023/01/22 02:44:01;;;;;;;;;;;;;;;;;;1039115;28;3803;-50
2023/01/22 02:44:31;;;;;;;;;;;;;;;;;;1039520;28;2003;-54
2023/01/22 02:45:01;;;;;;;;;;;;;;;;;;1038443;28;3873;-55
2023/01/22 02:45:32;;;;;;;;;;;;;;;;;;1040337;28;2613;-52
2023/01/22 02:46:02;;;;;;;;;;;;;;;;;;1042870;28;3727;-47
2023/01/22 02:46:33;;;;;;;;;;;;;;;;;;1040320;28;3895;-48
2023/01/22 02:47:03;;;;;;;;;;;;;;;;;;1039166;28;1982;-54
2023/01/22 02:47:34;;;;;;;;;;;;;;;;;;1040197;28;3882;-49
2023/01/22 02:48:05;;;;;;;;;;;;;;;;;;1040670;28;2825;-51
2023/01/22 02:48:35;;;;;;;;;;;;;;;;;;1039287;28;3858;-51
2023/01/22 02:49:05;;;;;;;;;;;;;;;;;;1040902;28;2111;-50
2023/01/22 02:49:35;;;;;;;;;;;;;;;;;;1035239;28;3899;-55
2023/01/22 02:50:06;;;;;;;;;;;;;;;;;;1035133;28;2128;-53
2023/01/22 02:50:36;;;;;;;;;;;;;;;;;;1037014;28;4174;-52
2023/01/22 02:51:07;;;;;;;;;;;;;;;;;;1034436;28;2046;-48
2023/01/22 02:51:37;;;;;;;;;;;;;;;;;;1039688;28;4072;-52
2023/01/22 02:52:07;;;;;;;;;;;;;;;;;;1039629;28;1865;-51
2023/01/22 02:52:38;;;;;;;;;;;;;;;;;;1036535;28;4405;-54
2023/01/22 02:53:08;;;;;;;;;;;;;;;;;;1039093;28;2311;-53
2023/01/22 02:53:38;;;;;;;;;;;;;;;;;;1038095;28;4051;-51
2023/01/22 02:54:08;;;;;;;;;;;;;;;;;;1037080;28;2888;-54
2023/01/22 02:54:39;;;;;;;;;;;;;;;;;;1039133;28;4424;-51
2023/01/22 02:55:09;;;;;;;;;;;;;;;;;;1039179;28;1729;-50
2023/01/22 02:55:40;;;;;;;;;;;;;;;;;;1038250;28;4555;-51
2023/01/22 02:56:18;;;;;;;;;;;;;;;;;;1039646;28;2778;-51
2023/01/22 02:56:48;;;;;;;;;;;;;;;;;;1039517;28;4045;-51
2023/01/22 02:57:18;;;;;;;;;;;;;;;;;;1039727;28;1675;-51
2023/01/22 02:57:49;;;;;;;;;;;;;;;;;;1039821;28;4529;-54
2023/01/22 02:58:19;;;;;;;;;;;;;;;;;;1039174;28;2382;-50
2023/01/22 02:58:49;;;;;;;;;;;;;;;;;;1041631;28;3860;-53
2023/01/22 02:59:20;;;;;;;;;;;;;;;;;;1039943;28;1885;-52
2023/01/22 02:59:50;;;;;;;;;;;;;;;;;;1039661;28;3929;-51
2023/01/22 03:00:20;;;;;;;;;;;;;;;;;;1040056;28;2809;-52
2023/01/22 03:00:51;;;;;;;;;;;;;;;;;;1040015;28;4105;-47
2023/01/22 03:01:27;;;;;;;;;;;;;;;;;;1040695;28;2289;-50
2023/01/22 03:01:57;;;;;;;;;;;;;;;;;;1039326;28;3934;-52
2023/01/22 03:02:28;;;;;;;;;;;;;;;;;;1040223;28;3459;-53
2023/01/22 03:02:58;;;;;;;;;;;;;;;;;;1039227;28;3769;-51
2023/01/22 03:03:28;;;;;;;;;;;;;;;;;;1036991;28;2145;-50
2023/01/22 03:04:09;;;;;;;;;;;;;;;;;;1035385;28;3925;-54
2023/01/22 03:04:39;;;;;;;;;;;;;;;;;;1035443;28;4408;-50
2023/01/22 03:05:10;;;;;;;;;;;;;;;;;;1036484;28;2712;-52
2023/01/22 03:05:50;;;;;;;;;;;;;;;;;;1040424;28;3914;-53
2023/01/22 03:06:21;;;;;;;;;;;;;;;;;;1039090;28;2833;-52
2023/01/22 03:06:51;;;;;;;;;;;;;;;;;;1040609;28;4200;-49
2023/01/22 03:07:22;;;;;;;;;;;;;;;;;;1039063;28;2485;-53
2023/01/22 03:07:52;;;;;;;;;;;;;;;;;;1039330;28;4754;-50
2023/01/22 03:08:25;;;;;;;;;;;;;;;;;;1039300;28;2499;-50
2023/01/22 03:08:57;;;;;;;;;;;;;;;;;;1037723;28;4371;-52
2023/01/22 03:09:27;;;;;;;;;;;;;;;;;;1040666;28;3982;-50
2023/01/22 03:09:57;;;;;;;;;;;;;;;;;;1038528;28;4240;-51
2023/01/22 03:10:27;;;;;;;;;;;;;;;;;;1040193;28;1928;-52
2023/01/22 03:10:57;;;;;;;;;;;;;;;;;;1040609;28;3846;-52
2023/01/22 03:11:29;;;;;;;;;;;;;;;;;;1036413;28;2799;-53
2023/01/22 03:11:59;;;;;;;;;;;;;;;;;;1034955;28;3878;-49
2023/01/22 03:12:29;;;;;;;;;;;;;;;;;;1038619;28;2066;-53
2023/01/22 03:21:29;;;;;;;;;;;;;;;;;;1035309;28;2419;-53
2023/01/22 03:22:00;;;;;;;;;;;;;;;;;;1034868;28;4208;-53
2023/01/22 03:22:30;;;;;;;;;;;;;;;;;;1036483;28;2944;-51
2023/01/22 03:23:01;;;;;;;;;;;;;;;;;;1034542;28;3892;-50
2023/01/22 03:23:31;;;;;;;;;;;;;;;;;;1035402;28;2718;-50
2023/01/22 03:24:01;;;;;;;;;;;;;;;;;;1033884;28;4369;-52
2023/01/22 03:24:32;;;;;;;;;;;;;;;;;;1035105;28;2807;-52
2023/01/22 03:25:02;;;;;;;;;;;;;;;;;;1035838;28;3719;-50
2023/01/22 03:25:32;;;;;;;;;;;;;;;;;;1035209;28;4681;-48
2023/01/22 03:26:03;;;;;;;;;;;;;;;;;;1035254;28;2370;-52
2023/01/22 03:26:34;;;;;;;;;;;;;;;;;;1037589;28;4088;-51
2023/01/22 03:27:04;;;;;;;;;;;;;;;;;;1035874;28;2583;-53
2023/01/22 03:27:35;;;;;;;;;;;;;;;;;;1035169;28;3787;-51
2023/01/22 03:28:15;;;;;;;;;;;;;;;;;;1035618;28;2491;-51
2023/01/22 03:28:45;;;;;;;;;;;;;;;;;;1034985;28;3915;-51
2023/01/22 03:29:15;;;;;;;;;;;;;;;;;;1034748;28;2661;-52
2023/01/22 03:29:46;;;;;;;;;;;;;;;;;;1036892;28;4004;-52
2023/01/22 03:30:16;;;;;;;;;;;;;;;;;;1035042;28;3215;-55
2023/01/22 03:30:47;;;;;;;;;;;;;;;;;;1035558;28;3896;-49
2023/01/22 03:31:17;;;;;;;;;;;;;;;;;;1035636;28;2103;-51
2023/01/22 03:31:48;;;;;;;;;;;;;;;;;;1036345;28;4372;-51
2023/01/22 03:32:18;;;;;;;;;;;;;;;;;;1034481;28;2829;-53
2023/01/22 03:32:48;;;;;;;;;;;;;;;;;;1035215;28;4050;-55
2023/01/22 03:33:19;;;;;;;;;;;;;;;;;;1035623;28;3025;-52
2023/01/22 03:33:49;;;;;;;;;;;;;;;;;;1035448;28;3839;-52
2023/01/22 03:34:20;;;;;;;;;;;;;;;;;;1035900;28;2922;-50
2023/01/22 03:34:52;;;;;;;;;;;;;;;;;;1034521;28;3996;-49
2023/01/22 03:35:22;;;;;;;;;;;;;;;;;;1036663;28;2614;-52
2023/01/22 03:35:57;;;;;;;;;;;;;;;;;;1034430;28;3997;-53
2023/01/22 03:36:27;;;;;;;;;;;;;;;;;;1039331;28;1613;-51
2023/01/22 03:36:58;;;;;;;;;;;;;;;;;;1036248;28;4062;-52
2023/01/22 03:37:28;;;;;;;;;;;;;;;;;;1037408;28;1877;-51
2023/01/22 03:37:58;;;;;;;;;;;;;;;;;;1035516;28;4016;-51
2023/01/22 03:38:29;;;;;;;;;;;;;;;;;;1035515;28;2701;-50
2023/01/22 03:38:59;;;;;;;;;;;;;;;;;;1034432;28;4095;-51
2023/01/22 03:39:29;;;;;;;;;;;;;;;;;;1035722;28;2803;-50
2023/01/22 03:40:00;;;;;;;;;;;;;;;;;;1034083;28;3919;-48
2023/01/22 03:40:30;;;;;;;;;;;;;;;;;;1037267;28;2772;-50
2023/01/22 03:41:01;;;;;;;;;;;;;;;;;;1035705;28;3876;-53
2023/01/22 03:41:31;;;;;;;;;;;;;;;;;;1036400;28;2548;-51
2023/01/22 03:42:01;;;;;;;;;;;;;;;;;;1035041;28;3877;-50
2023/01/22 03:42:32;;;;;;;;;;;;;;;;;;1034898;28;2974;-54
2023/01/22 03:43:02;;;;;;;;;;;;;;;;;;1035055;28;3983;-50
2023/01/22 03:43:32;;;;;;;;;;;;;;;;;;1037850;28;2023;-50
2023/01/22 03:44:03;;;;;;;;;;;;;;;;;;1035349;28;3752;-50
2023/01/22 03:44:33;;;;;;;;;;;;;;;;;;1033269;28;3881;-52
2023/01/22 03:45:04;;;;;;;;;;;;;;;;;;1037052;28;2755;-53
2023/01/22 03:45:34;;;;;;;;;;;;;;;;;;1036532;28;4476;-53